sensor_id;sensor_type;location;lat;lon;timestamp;pressure;altitude;pressure_sealevel;temperature;humidity
42433;BME280;28071;48.232;20.668;2023-09-12T00:03:49;99398.91;;;15.94;100.00
42433;BME280;28071;48.232;20.668;2023-09-12T00:08:51;99414.25;;;15.98;100.00
42433;BME280;28071;48.232;20.668;2023-09-12T00:13:52;99397.75;;;15.85;100.00
42433;BME280;28071;48.232;20.668;2023-09-12T00:18:52;99400.97;;;15.87;100.00
42433;BME280;28071;48.232;20.668;2023-09-12T00:23:53;99416.25;;;15.81;100.00
42433;BME280;28071;48.232;20.668;2023-09-12T00:28:53;99391.84;;;15.55;100.00
42433;BME280;28071;48.232;20.668;2023-09-12T00:33:53;99400.34;;;15.47;100.00
42433;BME280;28071;48.232;20.668;2023-09-12T00:38:54;99401.41;;;15.19;100.00
42433;BME280;28071;48.232;20.668;2023-09-12T00:43:54;99393.50;;;15.08;100.00
42433;BME280;28071;48.232;20.668;2023-09-12T00:48:55;99406.31;;;15.27;100.00
42433;BME280;28071;48.232;20.668;2023-09-12T00:53:57;99408.13;;;15.22;100.00
42433;BME280;28071;48.232;20.668;2023-09-12T00:58:58;99416.41;;;15.20;100.00
42433;BME280;28071;48.232;20.668;2023-09-12T01:03:58;99409.47;;;15.24;100.00
42433;BME280;28071;48.232;20.668;2023-09-12T01:08:59;99412.13;;;15.19;100.00
42433;BME280;28071;48.232;20.668;2023-09-12T01:14:00;99383.84;;;15.07;100.00
42433;BME280;28071;48.232;20.668;2023-09-12T01:19:01;99412.94;;;15.20;100.00
42433;BME280;28071;48.232;20.668;2023-09-12T01:29:36;99404.91;;;14.98;100.00
42433;BME280;28071;48.232;20.668;2023-09-12T01:34:38;99411.81;;;15.16;100.00
42433;BME280;28071;48.232;20.668;2023-09-12T01:39:38;99407.44;;;15.10;100.00
42433;BME280;28071;48.232;20.668;2023-09-12T01:44:39;99408.13;;;15.22;100.00
42433;BME280;28071;48.232;20.668;2023-09-12T01:49:41;99385.19;;;15.09;100.00
42433;BME280;28071;48.232;20.668;2023-09-12T01:54:44;99422.53;;;15.16;100.00
42433;BME280;28071;48.232;20.668;2023-09-12T01:59:45;99399.38;;;15.05;100.00
42433;BME280;28071;48.232;20.668;2023-09-12T02:05:06;99369.16;;;14.87;100.00
42433;BME280;28071;48.232;20.668;2023-09-12T02:10:08;99383.94;;;14.90;100.00
42433;BME280;28071;48.232;20.668;2023-09-12T02:15:10;99393.75;;;14.84;100.00
42433;BME280;28071;48.232;20.668;2023-09-12T02:20:10;99408.41;;;14.98;100.00
42433;BME280;28071;48.232;20.668;2023-09-12T02:25:11;99407.94;;;15.07;100.00
42433;BME280;28071;48.232;20.668;2023-09-12T02:30:12;99403.22;;;14.92;100.00
42433;BME280;28071;48.232;20.668;2023-09-12T02:35:12;99416.78;;;15.07;100.00
42433;BME280;28071;48.232;20.668;2023-09-12T02:40:12;99395.69;;;14.67;100.00
42433;BME280;28071;48.232;20.668;2023-09-12T02:45:14;99393.56;;;14.69;100.00
42433;BME280;28071;48.232;20.668;2023-09-12T02:50:15;99398.03;;;14.63;100.00
42433;BME280;28071;48.232;20.668;2023-09-12T02:55:15;99377.59;;;14.19;100.00
42433;BME280;28071;48.232;20.668;2023-09-12T03:00:16;99389.81;;;13.98;100.00
42433;BME280;28071;48.232;20.668;2023-09-12T03:05:16;99422.41;;;14.28;100.00
42433;BME280;28071;48.232;20.668;2023-09-12T03:10:17;99391.75;;;14.19;100.00
42433;BME280;28071;48.232;20.668;2023-09-12T03:15:17;99418.44;;;14.31;100.00
42433;BME280;28071;48.232;20.668;2023-09-12T03:20:17;99413.81;;;14.26;100.00
42433;BME280;28071;48.232;20.668;2023-09-12T03:25:18;99420.94;;;14.37;100.00
42433;BME280;28071;48.232;20.668;2023-09-12T03:30:20;99398.03;;;14.08;100.00
42433;BME280;28071;48.232;20.668;2023-09-12T03:35:20;99434.91;;;14.23;100.00
42433;BME280;28071;48.232;20.668;2023-09-12T03:40:21;99380.94;;;13.92;100.00
42433;BME280;28071;48.232;20.668;2023-09-12T03:45:21;99441.88;;;14.24;100.00
42433;BME280;28071;48.232;20.668;2023-09-12T03:50:22;99391.94;;;14.12;100.00
42433;BME280;28071;48.232;20.668;2023-09-12T03:55:22;99437.41;;;14.29;100.00
42433;BME280;28071;48.232;20.668;2023-09-12T04:00:23;99405.50;;;14.06;100.00
42433;BME280;28071;48.232;20.668;2023-09-12T04:05:25;99386.78;;;14.06;100.00
42433;BME280;28071;48.232;20.668;2023-09-12T04:10:25;99427.41;;;14.41;100.00
42433;BME280;28071;48.232;20.668;2023-09-12T04:15:26;99411.78;;;14.16;100.00
42433;BME280;28071;48.232;20.668;2023-09-12T04:20:26;99443.63;;;14.18;100.00
42433;BME280;28071;48.232;20.668;2023-09-12T04:25:26;99443.38;;;14.20;100.00
42433;BME280;28071;48.232;20.668;2023-09-12T04:30:27;99449.50;;;14.15;100.00
42433;BME280;28071;48.232;20.668;2023-09-12T04:35:27;99437.97;;;14.31;100.00
42433;BME280;28071;48.232;20.668;2023-09-12T04:40:27;99445.91;;;14.26;100.00
42433;BME280;28071;48.232;20.668;2023-09-12T04:45:28;99437.31;;;14.24;100.00
42433;BME280;28071;48.232;20.668;2023-09-12T04:50:28;99456.13;;;14.29;100.00
42433;BME280;28071;48.232;20.668;2023-09-12T04:55:28;99466.84;;;14.29;100.00
42433;BME280;28071;48.232;20.668;2023-09-12T05:00:29;99405.72;;;14.04;100.00
42433;BME280;28071;48.232;20.668;2023-09-12T05:05:29;99447.59;;;14.32;100.00
42433;BME280;28071;48.232;20.668;2023-09-12T05:10:30;99434.16;;;14.61;100.00
42433;BME280;28071;48.232;20.668;2023-09-12T05:15:31;99436.91;;;14.88;100.00
42433;BME280;28071;48.232;20.668;2023-09-12T05:20:32;99483.75;;;17.16;100.00
42433;BME280;28071;48.232;20.668;2023-09-12T05:25:33;99483.44;;;18.11;100.00
42433;BME280;28071;48.232;20.668;2023-09-12T05:30:33;99481.00;;;18.35;100.00
42433;BME280;28071;48.232;20.668;2023-09-12T05:35:36;99459.22;;;18.67;100.00
42433;BME280;28071;48.232;20.668;2023-09-12T05:40:37;99484.47;;;18.87;100.00
42433;BME280;28071;48.232;20.668;2023-09-12T05:45:38;99468.88;;;18.78;100.00
42433;BME280;28071;48.232;20.668;2023-09-12T05:50:41;99489.28;;;19.05;100.00
42433;BME280;28071;48.232;20.668;2023-09-12T05:55:49;99499.50;;;19.08;100.00
42433;BME280;28071;48.232;20.668;2023-09-12T06:00:49;99491.88;;;19.25;100.00
42433;BME280;28071;48.232;20.668;2023-09-12T06:05:49;99493.38;;;19.57;100.00
42433;BME280;28071;48.232;20.668;2023-09-12T06:10:50;99466.97;;;19.59;100.00
42433;BME280;28071;48.232;20.668;2023-09-12T06:15:53;99496.44;;;19.89;100.00
42433;BME280;28071;48.232;20.668;2023-09-12T06:20:54;99469.25;;;19.81;100.00
42433;BME280;28071;48.232;20.668;2023-09-12T06:25:54;99478.56;;;19.99;100.00
42433;BME280;28071;48.232;20.668;2023-09-12T06:30:54;99464.56;;;19.97;100.00
42433;BME280;28071;48.232;20.668;2023-09-12T06:35:55;99475.22;;;20.12;100.00
42433;BME280;28071;48.232;20.668;2023-09-12T06:40:55;99496.03;;;20.45;100.00
42433;BME280;28071;48.232;20.668;2023-09-12T06:45:56;99509.13;;;20.62;100.00
42433;BME280;28071;48.232;20.668;2023-09-12T06:50:56;99472.97;;;20.58;100.00
42433;BME280;28071;48.232;20.668;2023-09-12T06:55:57;99498.91;;;20.83;100.00
42433;BME280;28071;48.232;20.668;2023-09-12T07:01:04;99496.03;;;20.98;100.00
42433;BME280;28071;48.232;20.668;2023-09-12T07:06:04;99504.44;;;21.21;100.00
42433;BME280;28071;48.232;20.668;2023-09-12T07:11:05;99502.84;;;21.20;100.00
42433;BME280;28071;48.232;20.668;2023-09-12T07:16:06;99515.41;;;21.35;100.00
42433;BME280;28071;48.232;20.668;2023-09-12T07:21:07;99513.38;;;21.45;100.00
42433;BME280;28071;48.232;20.668;2023-09-12T07:26:12;99545.97;;;21.78;100.00
42433;BME280;28071;48.232;20.668;2023-09-12T07:31:14;99536.59;;;21.89;100.00
42433;BME280;28071;48.232;20.668;2023-09-12T07:36:14;99526.34;;;22.05;100.00
42433;BME280;28071;48.232;20.668;2023-09-12T07:41:14;99532.09;;;22.22;100.00
42433;BME280;28071;48.232;20.668;2023-09-12T07:46:15;99521.13;;;22.46;100.00
42433;BME280;28071;48.232;20.668;2023-09-12T07:51:16;99541.88;;;22.69;100.00
42433;BME280;28071;48.232;20.668;2023-09-12T07:56:17;99520.91;;;22.75;100.00
42433;BME280;28071;48.232;20.668;2023-09-12T08:01:18;99526.50;;;22.97;100.00
42433;BME280;28071;48.232;20.668;2023-09-12T08:06:18;99530.31;;;23.24;100.00
42433;BME280;28071;48.232;20.668;2023-09-12T08:11:19;99495.75;;;23.30;100.00
42433;BME280;28071;48.232;20.668;2023-09-12T08:16:19;99514.81;;;23.38;100.00
42433;BME280;28071;48.232;20.668;2023-09-12T08:21:19;99535.13;;;23.68;100.00
42433;BME280;28071;48.232;20.668;2023-09-12T08:26:20;99536.28;;;23.90;100.00
42433;BME280;28071;48.232;20.668;2023-09-12T08:31:20;99529.28;;;24.11;100.00
42433;BME280;28071;48.232;20.668;2023-09-12T08:36:20;99528.78;;;24.31;99.85
42433;BME280;28071;48.232;20.668;2023-09-12T08:41:21;99536.09;;;24.67;96.97
42433;BME280;28071;48.232;20.668;2023-09-12T08:46:22;99538.31;;;24.96;96.24
42433;BME280;28071;48.232;20.668;2023-09-12T08:51:23;99539.66;;;25.07;94.26
42433;BME280;28071;48.232;20.668;2023-09-12T08:56:27;99540.63;;;25.60;92.15
42433;BME280;28071;48.232;20.668;2023-09-12T09:01:30;99535.41;;;25.89;90.62
42433;BME280;28071;48.232;20.668;2023-09-12T09:06:31;99543.28;;;26.34;87.01
42433;BME280;28071;48.232;20.668;2023-09-12T09:11:39;99525.88;;;26.73;83.26
42433;BME280;28071;48.232;20.668;2023-09-12T09:16:39;99530.69;;;26.85;81.08
42433;BME280;28071;48.232;20.668;2023-09-12T09:21:40;99528.38;;;27.13;79.02
42433;BME280;28071;48.232;20.668;2023-09-12T09:31:50;99520.09;;;28.02;70.38
42433;BME280;28071;48.232;20.668;2023-09-12T09:36:53;99536.41;;;28.52;70.23
42433;BME280;28071;48.232;20.668;2023-09-12T09:41:55;99537.56;;;28.63;70.15
42433;BME280;28071;48.232;20.668;2023-09-12T09:46:59;99515.09;;;28.70;70.27
42433;BME280;28071;48.232;20.668;2023-09-12T09:52:03;99534.59;;;29.26;68.23
42433;BME280;28071;48.232;20.668;2023-09-12T09:57:05;99537.19;;;29.47;67.16
42433;BME280;28071;48.232;20.668;2023-09-12T10:02:13;99510.63;;;29.47;67.74
42433;BME280;28071;48.232;20.668;2023-09-12T10:07:15;99524.31;;;30.12;63.58
42433;BME280;28071;48.232;20.668;2023-09-12T10:12:16;99520.78;;;30.39;64.37
42433;BME280;28071;48.232;20.668;2023-09-12T10:17:18;99529.66;;;30.49;61.87
42433;BME280;28071;48.232;20.668;2023-09-12T10:22:32;99508.03;;;30.47;60.78
42433;BME280;28071;48.232;20.668;2023-09-12T10:27:34;99500.56;;;30.76;61.20
42433;BME280;28071;48.232;20.668;2023-09-12T10:32:35;99520.81;;;31.50;58.80
42433;BME280;28071;48.232;20.668;2023-09-12T10:37:37;99513.91;;;31.91;55.08
42433;BME280;28071;48.232;20.668;2023-09-12T10:42:42;99513.25;;;31.98;54.88
42433;BME280;28071;48.232;20.668;2023-09-12T10:47:43;99517.44;;;32.50;53.45
42433;BME280;28071;48.232;20.668;2023-09-12T10:52:43;99512.72;;;32.50;54.05
42433;BME280;28071;48.232;20.668;2023-09-12T10:58:02;99497.84;;;32.78;53.06
42433;BME280;28071;48.232;20.668;2023-09-12T11:08:27;99501.25;;;33.17;51.77
42433;BME280;28071;48.232;20.668;2023-09-12T11:13:38;99478.16;;;33.52;49.90
42433;BME280;28071;48.232;20.668;2023-09-12T11:19:21;99493.06;;;34.07;50.94
42433;BME280;28071;48.232;20.668;2023-09-12T11:24:26;99472.66;;;34.15;47.82
42433;BME280;28071;48.232;20.668;2023-09-12T11:34:36;99457.13;;;34.00;47.25
42433;BME280;28071;48.232;20.668;2023-09-12T11:39:39;99460.88;;;34.56;46.74
42433;BME280;28071;48.232;20.668;2023-09-12T11:44:40;99455.13;;;34.34;47.85
42433;BME280;28071;48.232;20.668;2023-09-12T11:49:42;99453.50;;;34.70;46.20
42433;BME280;28071;48.232;20.668;2023-09-12T11:54:43;99461.81;;;35.22;44.33
42433;BME280;28071;48.232;20.668;2023-09-12T11:59:45;99469.13;;;34.96;45.82
42433;BME280;28071;48.232;20.668;2023-09-12T12:04:48;99460.16;;;35.14;44.23
42433;BME280;28071;48.232;20.668;2023-09-12T12:09:49;99444.34;;;35.07;42.95
42433;BME280;28071;48.232;20.668;2023-09-12T12:14:50;99447.69;;;35.38;42.26
42433;BME280;28071;48.232;20.668;2023-09-12T12:19:50;99448.31;;;35.13;42.73
42433;BME280;28071;48.232;20.668;2023-09-12T12:24:51;99439.25;;;35.20;42.62
42433;BME280;28071;48.232;20.668;2023-09-12T12:29:51;99432.44;;;35.69;40.16
42433;BME280;28071;48.232;20.668;2023-09-12T12:34:52;99428.13;;;35.85;40.14
42433;BME280;28071;48.232;20.668;2023-09-12T12:39:52;99422.97;;;35.80;39.12
42433;BME280;28071;48.232;20.668;2023-09-12T12:44:54;99415.88;;;35.83;38.95
42433;BME280;28071;48.232;20.668;2023-09-12T12:49:54;99420.72;;;36.07;39.43
42433;BME280;28071;48.232;20.668;2023-09-12T12:55:03;99422.28;;;36.08;37.71
42433;BME280;28071;48.232;20.668;2023-09-12T13:00:15;99413.16;;;36.04;36.41
42433;BME280;28071;48.232;20.668;2023-09-12T13:05:25;99402.97;;;36.58;37.46
42433;BME280;28071;48.232;20.668;2023-09-12T13:10:26;99426.31;;;36.64;36.07
42433;BME280;28071;48.232;20.668;2023-09-12T13:15:26;99423.94;;;36.56;36.96
42433;BME280;28071;48.232;20.668;2023-09-12T13:20:26;99408.47;;;36.26;32.59
42433;BME280;28071;48.232;20.668;2023-09-12T13:25:27;99395.63;;;35.65;36.09
42433;BME280;28071;48.232;20.668;2023-09-12T13:30:28;99404.34;;;35.63;36.55
42433;BME280;28071;48.232;20.668;2023-09-12T13:35:28;99402.13;;;35.21;38.40
42433;BME280;28071;48.232;20.668;2023-09-12T13:40:28;99373.22;;;35.04;37.73
42433;BME280;28071;48.232;20.668;2023-09-12T13:45:29;99400.97;;;35.25;35.52
42433;BME280;28071;48.232;20.668;2023-09-12T13:50:29;99386.72;;;35.20;35.87
42433;BME280;28071;48.232;20.668;2023-09-12T13:55:30;99402.03;;;35.76;36.79
42433;BME280;28071;48.232;20.668;2023-09-12T14:00:31;99394.50;;;35.76;35.61
42433;BME280;28071;48.232;20.668;2023-09-12T14:05:32;99409.50;;;35.68;36.76
42433;BME280;28071;48.232;20.668;2023-09-12T14:10:33;99383.19;;;35.23;34.72
42433;BME280;28071;48.232;20.668;2023-09-12T14:15:33;99390.50;;;34.90;37.56
42433;BME280;28071;48.232;20.668;2023-09-12T14:20:34;99395.09;;;34.75;36.13
42433;BME280;28071;48.232;20.668;2023-09-12T14:25:35;99390.16;;;34.95;36.29
42433;BME280;28071;48.232;20.668;2023-09-12T14:30:36;99395.16;;;34.79;35.74
42433;BME280;28071;48.232;20.668;2023-09-12T14:35:39;99399.72;;;35.09;36.98
42433;BME280;28071;48.232;20.668;2023-09-12T14:40:39;99398.44;;;34.95;37.58
42433;BME280;28071;48.232;20.668;2023-09-12T14:45:40;99401.41;;;34.69;37.84
42433;BME280;28071;48.232;20.668;2023-09-12T14:50:41;99377.72;;;34.27;39.76
42433;BME280;28071;48.232;20.668;2023-09-12T14:55:42;99377.28;;;33.84;41.55
42433;BME280;28071;48.232;20.668;2023-09-12T15:00:43;99399.94;;;33.67;42.98
42433;BME280;28071;48.232;20.668;2023-09-12T15:05:44;99398.44;;;33.39;43.60
42433;BME280;28071;48.232;20.668;2023-09-12T15:10:45;99374.34;;;32.80;44.02
42433;BME280;28071;48.232;20.668;2023-09-12T15:15:45;99360.81;;;32.25;44.23
42433;BME280;28071;48.232;20.668;2023-09-12T15:20:46;99384.34;;;31.77;46.31
42433;BME280;28071;48.232;20.668;2023-09-12T15:25:47;99380.97;;;31.13;47.82
42433;BME280;28071;48.232;20.668;2023-09-12T15:30:48;99387.00;;;30.68;50.72
42433;BME280;28071;48.232;20.668;2023-09-12T15:35:48;99360.06;;;29.67;53.74
42433;BME280;28071;48.232;20.668;2023-09-12T15:40:49;99340.84;;;28.74;56.82
42433;BME280;28071;48.232;20.668;2023-09-12T15:45:50;99361.41;;;27.98;60.50
42433;BME280;28071;48.232;20.668;2023-09-12T15:50:51;99368.84;;;27.56;63.35
42433;BME280;28071;48.232;20.668;2023-09-12T15:55:52;99342.44;;;26.97;66.35
42433;BME280;28071;48.232;20.668;2023-09-12T16:00:52;99361.66;;;26.80;68.05
42433;BME280;28071;48.232;20.668;2023-09-12T16:05:53;99351.34;;;26.09;71.28
42433;BME280;28071;48.232;20.668;2023-09-12T16:10:54;99340.03;;;25.46;75.77
42433;BME280;28071;48.232;20.668;2023-09-12T16:15:54;99344.97;;;25.01;79.02
42433;BME280;28071;48.232;20.668;2023-09-12T16:20:57;99371.53;;;24.96;80.28
42433;BME280;28071;48.232;20.668;2023-09-12T16:25:59;99359.53;;;24.48;83.55
42433;BME280;28071;48.232;20.668;2023-09-12T16:31:00;99332.91;;;23.97;85.74
42433;BME280;28071;48.232;20.668;2023-09-12T16:36:01;99307.44;;;23.39;88.46
42433;BME280;28071;48.232;20.668;2023-09-12T16:41:02;99358.75;;;23.49;89.66
42433;BME280;28071;48.232;20.668;2023-09-12T16:46:03;99344.94;;;23.01;91.58
42433;BME280;28071;48.232;20.668;2023-09-12T16:51:04;99364.97;;;22.91;92.31
42433;BME280;28071;48.232;20.668;2023-09-12T16:56:04;99329.28;;;22.57;92.86
42433;BME280;28071;48.232;20.668;2023-09-12T17:01:05;99351.28;;;22.55;93.43
42433;BME280;28071;48.232;20.668;2023-09-12T17:06:06;99346.88;;;22.46;91.73
42433;BME280;28071;48.232;20.668;2023-09-12T17:11:06;99319.22;;;22.02;92.28
42433;BME280;28071;48.232;20.668;2023-09-12T17:16:07;99374.25;;;22.17;93.87
42433;BME280;28071;48.232;20.668;2023-09-12T17:21:08;99351.84;;;21.78;95.95
42433;BME280;28071;48.232;20.668;2023-09-12T17:26:09;99315.81;;;21.31;98.18
42433;BME280;28071;48.232;20.668;2023-09-12T17:31:10;99380.41;;;21.52;100.00
42433;BME280;28071;48.232;20.668;2023-09-12T17:36:12;99386.84;;;21.56;100.00
42433;BME280;28071;48.232;20.668;2023-09-12T17:41:13;99383.72;;;21.49;100.00
42433;BME280;28071;48.232;20.668;2023-09-12T17:46:14;99382.41;;;21.27;100.00
42433;BME280;28071;48.232;20.668;2023-09-12T17:51:18;99389.66;;;21.08;100.00
42433;BME280;28071;48.232;20.668;2023-09-12T17:56:18;99395.38;;;20.83;100.00
42433;BME280;28071;48.232;20.668;2023-09-12T18:01:19;99391.72;;;20.49;100.00
42433;BME280;28071;48.232;20.668;2023-09-12T18:06:20;99365.22;;;20.22;100.00
42433;BME280;28071;48.232;20.668;2023-09-12T18:11:21;99395.19;;;20.26;100.00
42433;BME280;28071;48.232;20.668;2023-09-12T18:16:22;99380.16;;;20.15;100.00
42433;BME280;28071;48.232;20.668;2023-09-12T18:21:23;99367.66;;;19.95;100.00
42433;BME280;28071;48.232;20.668;2023-09-12T18:26:23;99389.38;;;20.09;100.00
42433;BME280;28071;48.232;20.668;2023-09-12T18:31:26;99393.66;;;20.15;100.00
42433;BME280;28071;48.232;20.668;2023-09-12T18:36:27;99335.84;;;19.58;100.00
42433;BME280;28071;48.232;20.668;2023-09-12T18:41:33;99357.09;;;19.64;100.00
42433;BME280;28071;48.232;20.668;2023-09-12T18:46:36;99379.91;;;19.82;100.00
42433;BME280;28071;48.232;20.668;2023-09-12T18:51:36;99386.44;;;19.71;100.00
42433;BME280;28071;48.232;20.668;2023-09-12T18:56:40;99374.81;;;19.36;100.00
42433;BME280;28071;48.232;20.668;2023-09-12T19:01:42;99387.28;;;19.22;100.00
42433;BME280;28071;48.232;20.668;2023-09-12T19:06:43;99380.69;;;18.99;100.00
42433;BME280;28071;48.232;20.668;2023-09-12T19:11:45;99374.00;;;18.81;100.00
42433;BME280;28071;48.232;20.668;2023-09-12T19:16:52;99372.09;;;18.92;100.00
42433;BME280;28071;48.232;20.668;2023-09-12T19:21:53;99380.09;;;19.02;100.00
42433;BME280;28071;48.232;20.668;2023-09-12T19:27:00;99393.13;;;18.90;100.00
42433;BME280;28071;48.232;20.668;2023-09-12T19:32:02;99378.84;;;18.84;100.00
42433;BME280;28071;48.232;20.668;2023-09-12T19:37:04;99402.88;;;18.61;100.00
42433;BME280;28071;48.232;20.668;2023-09-12T19:42:13;99378.44;;;18.32;100.00
42433;BME280;28071;48.232;20.668;2023-09-12T19:47:19;99411.22;;;18.64;100.00
42433;BME280;28071;48.232;20.668;2023-09-12T19:52:20;99410.44;;;18.48;100.00
42433;BME280;28071;48.232;20.668;2023-09-12T19:57:24;99406.19;;;18.37;100.00
42433;BME280;28071;48.232;20.668;2023-09-12T20:02:26;99413.69;;;18.40;100.00
42433;BME280;28071;48.232;20.668;2023-09-12T20:07:29;99397.56;;;18.25;100.00
42433;BME280;28071;48.232;20.668;2023-09-12T20:12:31;99422.59;;;18.36;100.00
42433;BME280;28071;48.232;20.668;2023-09-12T20:17:33;99417.50;;;18.29;100.00
42433;BME280;28071;48.232;20.668;2023-09-12T20:22:34;99407.25;;;18.31;100.00
42433;BME280;28071;48.232;20.668;2023-09-12T20:27:35;99408.31;;;18.35;100.00
42433;BME280;28071;48.232;20.668;2023-09-12T20:32:35;99414.50;;;18.36;100.00
42433;BME280;28071;48.232;20.668;2023-09-12T20:37:37;99400.03;;;18.01;100.00
42433;BME280;28071;48.232;20.668;2023-09-12T20:42:41;99409.19;;;17.85;100.00
42433;BME280;28071;48.232;20.668;2023-09-12T20:47:41;99423.44;;;17.95;100.00
42433;BME280;28071;48.232;20.668;2023-09-12T20:52:43;99421.22;;;17.62;100.00
42433;BME280;28071;48.232;20.668;2023-09-12T20:57:44;99412.59;;;17.50;100.00
42433;BME280;28071;48.232;20.668;2023-09-12T21:02:44;99412.63;;;17.70;100.00
42433;BME280;28071;48.232;20.668;2023-09-12T21:07:45;99391.88;;;17.40;100.00
42433;BME280;28071;48.232;20.668;2023-09-12T21:12:45;99376.00;;;17.23;100.00
42433;BME280;28071;48.232;20.668;2023-09-12T21:17:46;99417.66;;;17.36;100.00
42433;BME280;28071;48.232;20.668;2023-09-12T21:22:46;99373.41;;;16.76;100.00
42433;BME280;28071;48.232;20.668;2023-09-12T21:27:46;99394.97;;;16.96;100.00
42433;BME280;28071;48.232;20.668;2023-09-12T21:32:47;99402.44;;;16.79;100.00
42433;BME280;28071;48.232;20.668;2023-09-12T21:37:47;99390.22;;;16.56;100.00
42433;BME280;28071;48.232;20.668;2023-09-12T21:42:48;99426.38;;;16.85;100.00
42433;BME280;28071;48.232;20.668;2023-09-12T21:47:48;99335.28;;;16.26;100.00
42433;BME280;28071;48.232;20.668;2023-09-12T21:52:48;99395.09;;;16.64;100.00
42433;BME280;28071;48.232;20.668;2023-09-12T21:57:49;99413.75;;;16.91;100.00
42433;BME280;28071;48.232;20.668;2023-09-12T22:02:50;99431.97;;;16.84;100.00
42433;BME280;28071;48.232;20.668;2023-09-12T22:07:51;99418.97;;;16.65;100.00
42433;BME280;28071;48.232;20.668;2023-09-12T22:12:51;99421.47;;;16.77;100.00
42433;BME280;28071;48.232;20.668;2023-09-12T22:17:52;99408.25;;;16.65;100.00
42433;BME280;28071;48.232;20.668;2023-09-12T22:22:52;99418.72;;;16.67;100.00
42433;BME280;28071;48.232;20.668;2023-09-12T22:27:53;99435.63;;;16.68;100.00
42433;BME280;28071;48.232;20.668;2023-09-12T22:32:53;99424.78;;;16.47;100.00
42433;BME280;28071;48.232;20.668;2023-09-12T22:37:54;99405.56;;;16.23;100.00
42433;BME280;28071;48.232;20.668;2023-09-12T22:42:54;99430.13;;;16.42;100.00
42433;BME280;28071;48.232;20.668;2023-09-12T22:47:54;99399.69;;;16.26;100.00
42433;BME280;28071;48.232;20.668;2023-09-12T22:52:55;99432.59;;;16.54;100.00
42433;BME280;28071;48.232;20.668;2023-09-12T22:57:56;99429.63;;;16.50;100.00
42433;BME280;28071;48.232;20.668;2023-09-12T23:02:56;99424.94;;;16.30;100.00
42433;BME280;28071;48.232;20.668;2023-09-12T23:07:57;99424.94;;;16.30;100.00
42433;BME280;28071;48.232;20.668;2023-09-12T23:12:57;99417.31;;;16.12;100.00
42433;BME280;28071;48.232;20.668;2023-09-12T23:17:58;99427.09;;;15.96;100.00
42433;BME280;28071;48.232;20.668;2023-09-12T23:22:58;99432.28;;;16.08;100.00
42433;BME280;28071;48.232;20.668;2023-09-12T23:27:58;99412.91;;;16.01;100.00
42433;BME280;28071;48.232;20.668;2023-09-12T23:32:59;99424.72;;;16.00;100.00
42433;BME280;28071;48.232;20.668;2023-09-12T23:37:59;99425.78;;;15.99;100.00
42433;BME280;28071;48.232;20.668;2023-09-12T23:42:59;99428.13;;;15.90;100.00
42433;BME280;28071;48.232;20.668;2023-09-12T23:48:00;99402.91;;;15.91;100.00
42433;BME280;28071;48.232;20.668;2023-09-12T23:53:00;99414.44;;;15.92;100.00
42433;BME280;28071;48.232;20.668;2023-09-12T23:58:01;99397.25;;;15.88;100.00
